Time;durP1;ratioP1;P1;durP2;ratioP2;P2;SDS_P1;SDS_P2;PMS_P1;PMS_P2;Temp;Humidity;BMP_temperature;BMP_pressure;BME280_temperature;BME280_humidity;BME280_pressure;Samples;Min_cycle;Max_cycle;Signal;HPM_P1;HPM_P2
2021/09/28 00:02:21;;;;;;;15.70;13.25;;;16.30;99.90;;;-141.85;100.00;63675.41;4956966;29;20236;-61
2021/09/28 00:04:51;;;;;;;13.23;11.82;;;16.40;99.90;;;-141.85;100.00;63675.41;4957279;29;20731;-61
2021/09/28 00:07:19;;;;;;;15.77;13.02;;;16.40;99.90;;;-141.85;100.00;63675.41;4956899;29;20316;-61
2021/09/28 00:09:47;;;;;;;13.70;12.20;;;16.40;99.90;;;-141.85;100.00;63675.41;4957074;29;20307;-61
2021/09/28 00:12:15;;;;;;;14.63;13.13;;;16.40;99.90;;;-141.85;100.00;63675.41;4956518;29;20240;-61
2021/09/28 00:14:43;;;;;;;13.80;12.35;;;16.40;99.90;;;-141.85;100.00;63675.41;4956928;29;20293;-61
2021/09/28 00:17:12;;;;;;;14.43;12.43;;;16.40;99.90;;;-141.85;100.00;63675.41;4956654;28;20251;-62
2021/09/28 00:19:41;;;;;;;17.52;12.20;;;16.40;99.90;;;-141.85;100.00;63675.41;4956769;29;20251;-60
2021/09/28 00:22:10;;;;;;;13.70;12.30;;;16.30;99.90;;;-141.85;100.00;63675.41;4956745;29;20280;-61
2021/09/28 00:24:38;;;;;;;16.55;12.93;;;16.30;99.90;;;-141.85;100.00;63675.41;4956741;29;20304;-61
2021/09/28 00:27:07;;;;;;;13.68;12.23;;;16.20;99.90;;;-141.85;100.00;63675.41;4956614;29;20232;-61
2021/09/28 00:29:35;;;;;;;15.90;13.18;;;16.20;99.90;;;-141.85;100.00;63675.41;4956570;29;20226;-61
2021/09/28 00:32:05;;;;;;;14.23;12.73;;;16.20;99.90;;;-141.85;100.00;63675.41;4956452;29;20300;-60
2021/09/28 00:34:34;;;;;;;13.80;11.85;;;16.10;99.90;;;-141.85;100.00;63675.41;4956437;29;20321;-61
2021/09/28 00:37:02;;;;;;;13.88;12.48;;;16.10;99.90;;;-141.85;100.00;63675.41;4956492;29;20307;-61
2021/09/28 00:39:31;;;;;;;14.68;13.05;;;16.10;99.90;;;-141.85;100.00;63675.41;4956049;29;20676;-61
2021/09/28 00:41:59;;;;;;;15.60;13.40;;;16.10;99.90;;;-141.85;100.00;63675.41;4956307;29;20291;-60
2021/09/28 00:44:36;;;;;;;15.65;13.60;;;16.20;99.90;;;-141.85;100.00;63675.41;4956365;29;20225;-61
2021/09/28 00:47:06;;;;;;;14.32;12.82;;;16.20;99.90;;;-141.85;100.00;63675.41;4955992;29;20712;-61
2021/09/28 00:49:35;;;;;;;14.75;12.43;;;16.20;99.90;;;-141.85;100.00;63675.41;4956234;29;20235;-60
2021/09/28 00:52:03;;;;;;;15.45;13.20;;;16.30;99.90;;;-141.85;100.00;63675.41;4954980;28;20236;-60
2021/09/28 00:54:33;;;;;;;18.60;13.95;;;16.30;99.90;;;-141.85;100.00;63675.41;4952974;29;20296;-61
2021/09/28 00:57:01;;;;;;;16.10;13.38;;;16.30;99.90;;;-141.85;100.00;63675.41;4936494;29;20237;-61
2021/09/28 00:59:29;;;;;;;14.50;12.63;;;16.30;99.90;;;-141.85;100.00;63675.41;4936845;29;20317;-60
2021/09/28 01:01:57;;;;;;;14.18;12.68;;;16.30;99.90;;;-141.85;100.00;63675.41;4937115;29;20677;-61
2021/09/28 01:04:25;;;;;;;15.57;12.73;;;16.30;99.90;;;-141.85;100.00;63675.41;4936859;29;20205;-61
2021/09/28 01:06:53;;;;;;;14.48;12.95;;;16.30;99.90;;;-141.85;100.00;63675.41;4936490;29;20605;-60
2021/09/28 01:09:22;;;;;;;14.25;12.57;;;16.30;99.90;;;-141.85;100.00;63675.41;4936745;29;20202;-60
2021/09/28 01:11:51;;;;;;;14.40;12.02;;;16.30;99.90;;;-141.85;100.00;63675.41;4936616;29;20232;-61
2021/09/28 01:14:20;;;;;;;13.50;12.07;;;16.30;99.90;;;-141.85;100.00;63675.41;4936710;29;20253;-61
2021/09/28 01:16:48;;;;;;;13.95;12.45;;;16.20;99.90;;;-141.85;100.00;63675.41;4936471;29;20240;-60
2021/09/28 01:19:16;;;;;;;14.98;12.77;;;16.20;99.90;;;-141.85;100.00;63675.41;4937406;29;20313;-61
2021/09/28 01:21:46;;;;;;;16.80;13.05;;;16.20;99.90;;;-141.85;100.00;63675.41;4936839;29;20214;-61
2021/09/28 01:24:14;;;;;;;16.70;13.25;;;16.10;99.90;;;-141.85;100.00;63675.41;4936554;29;20186;-60
2021/09/28 01:26:43;;;;;;;15.48;12.88;;;16.10;99.90;;;-141.85;100.00;63675.41;4936512;29;20300;-61
2021/09/28 01:29:12;;;;;;;17.30;12.85;;;16.00;99.90;;;-141.85;100.00;63675.41;4936326;29;20704;-61
2021/09/28 01:31:41;;;;;;;18.05;13.35;;;16.00;99.90;;;-141.85;100.00;63675.41;4936087;29;20235;-60
2021/09/28 01:34:09;;;;;;;16.45;12.95;;;15.90;99.90;;;-141.85;100.00;63675.41;4936299;29;20292;-61
2021/09/28 01:36:37;;;;;;;16.98;14.55;;;15.90;99.90;;;-141.85;100.00;63675.41;4936223;29;20209;-60
2021/09/28 01:39:08;;;;;;;17.25;13.88;;;15.90;99.90;;;-141.85;100.00;63675.41;4936160;29;20237;-61
2021/09/28 01:41:36;;;;;;;17.13;14.20;;;15.90;99.90;;;-141.85;100.00;63675.41;4935599;29;20701;-61
2021/09/28 01:44:08;;;;;;;16.77;14.45;;;15.90;99.90;;;-141.85;100.00;63675.41;4936057;29;20296;-61
2021/09/28 01:46:39;;;;;;;14.25;12.82;;;16.00;99.90;;;-141.85;100.00;63675.41;4935842;29;20749;-61
2021/09/28 01:49:09;;;;;;;11.57;9.50;;;16.10;99.90;;;-141.85;100.00;63675.41;4935689;29;20190;-62
2021/09/28 01:51:38;;;;;;;7.70;6.88;;;16.20;99.90;;;-141.85;100.00;63675.41;4935626;29;20647;-61
2021/09/28 01:54:08;;;;;;;4.90;4.50;;;16.20;99.90;;;-141.85;100.00;63675.41;4935940;29;20296;-60
2021/09/28 01:56:38;;;;;;;3.15;2.50;;;16.20;99.90;;;-141.85;100.00;63675.41;4935786;29;20204;-60
2021/09/28 01:59:08;;;;;;;1.80;1.70;;;16.20;99.90;;;-141.85;100.00;63675.41;4935835;29;20305;-61
2021/09/28 02:01:37;;;;;;;1.88;1.02;;;16.20;99.90;;;-141.85;100.00;63675.41;4935625;29;20328;-61
2021/09/28 02:04:05;;;;;;;1.35;0.90;;;16.10;99.90;;;-141.85;100.00;63675.41;4935621;29;20205;-61
2021/09/28 02:06:39;;;;;;;4.60;1.17;;;16.10;99.90;;;-141.85;100.00;63675.41;4935348;29;20288;-60
2021/09/28 02:09:10;;;;;;;1.70;0.80;;;16.00;99.90;;;-141.85;100.00;63675.41;4935716;29;20280;-61
2021/09/28 02:11:39;;;;;;;1.73;0.82;;;15.90;99.90;;;-141.85;100.00;63675.41;4935531;29;20459;-60
2021/09/28 02:14:09;;;;;;;0.95;0.80;;;15.80;99.90;;;-141.85;100.00;63675.41;4935317;29;20654;-62
2021/09/28 02:16:38;;;;;;;2.03;0.63;;;15.70;99.90;;;-141.85;100.00;63675.41;4935139;29;20194;-62
2021/09/28 02:19:07;;;;;;;3.58;1.00;;;15.70;99.90;;;-141.85;100.00;63675.41;4935519;29;20253;-60
2021/09/28 02:21:35;;;;;;;2.78;1.05;;;15.70;99.90;;;-141.85;100.00;63675.41;4935337;29;20256;-61
2021/09/28 02:24:03;;;;;;;3.92;0.90;;;15.70;99.90;;;-141.85;100.00;63675.41;4935454;29;20280;-61
2021/09/28 02:26:32;;;;;;;1.98;0.98;;;15.70;99.90;;;-141.85;100.00;63675.41;4934926;29;20205;-61
2021/09/28 02:29:01;;;;;;;1.63;0.90;;;15.70;99.90;;;-141.85;100.00;63675.41;4935100;29;20210;-61
2021/09/28 02:31:29;;;;;;;2.85;0.90;;;15.60;99.90;;;-141.85;100.00;63675.41;4935199;29;20214;-62
2021/09/28 02:33:57;;;;;;;1.38;0.90;;;15.60;99.90;;;-141.85;100.00;63675.41;4935305;29;20246;-61
2021/09/28 02:36:25;;;;;;;1.95;1.08;;;15.50;99.90;;;-141.85;100.00;63675.41;4935139;29;20242;-61
2021/09/28 02:38:53;;;;;;;1.08;0.90;;;15.50;99.90;;;-141.85;100.00;63675.41;4935147;29;20284;-60
2021/09/28 02:41:21;;;;;;;1.48;0.90;;;15.50;99.90;;;-141.85;100.00;63675.41;4934694;29;20709;-61
2021/09/28 02:43:51;;;;;;;1.33;1.00;;;15.50;99.90;;;-141.85;100.00;63675.41;4934842;29;20296;-60
2021/09/28 02:46:19;;;;;;;1.60;1.00;;;15.50;99.90;;;-141.85;100.00;63675.41;4934923;29;20288;-61
2021/09/28 02:48:47;;;;;;;3.25;0.90;;;15.50;99.90;;;-141.85;100.00;63675.41;4935038;29;20210;-60
2021/09/28 02:51:15;;;;;;;1.42;0.90;;;15.50;99.90;;;-141.85;100.00;63675.41;4934964;29;20288;-61
2021/09/28 02:53:43;;;;;;;1.92;1.23;;;15.40;99.90;;;-141.85;100.00;63675.41;4935038;29;20503;-61
2021/09/28 02:56:11;;;;;;;2.80;1.10;;;15.40;99.90;;;-141.85;100.00;63675.41;4942855;29;20244;-62
2021/09/28 03:01:23;;;;;;;1.83;1.00;;;15.40;99.90;;;-141.85;100.00;63675.41;5289421;23;20251;-68
2021/09/28 03:03:51;;;;;;;2.55;1.40;;;15.40;99.90;;;-141.85;100.00;63675.41;4934260;29;20691;-68
2021/09/28 03:06:19;;;;;;;2.63;1.30;;;15.40;99.90;;;-141.85;100.00;63675.41;4934716;29;20205;-69
2021/09/28 03:08:47;;;;;;;3.05;1.90;;;15.30;99.90;;;-141.85;100.00;63675.41;4933816;29;20208;-68
2021/09/28 03:11:15;;;;;;;2.78;1.63;;;15.40;99.90;;;-141.85;100.00;63675.41;4934059;29;20197;-61
2021/09/28 03:13:43;;;;;;;2.70;1.80;;;15.40;99.90;;;-141.85;100.00;63675.41;4934477;29;20304;-60
2021/09/28 03:16:11;;;;;;;4.38;1.70;;;15.40;99.90;;;-141.85;100.00;63675.41;4933844;29;20296;-61
2021/09/28 03:18:40;;;;;;;2.10;1.48;;;15.30;99.90;;;-141.85;100.00;63675.41;4934446;29;20210;-61
2021/09/28 03:21:08;;;;;;;3.78;2.40;;;15.30;99.90;;;-141.85;100.00;63675.41;4934268;29;20319;-60
2021/09/28 03:23:36;;;;;;;3.72;2.28;;;15.30;99.90;;;-141.85;100.00;63675.41;4934708;29;20288;-61
2021/09/28 03:26:04;;;;;;;3.30;2.10;;;15.30;99.90;;;-141.85;100.00;63675.41;4934530;29;20320;-60
2021/09/28 03:28:32;;;;;;;3.30;2.00;;;15.20;99.90;;;-141.85;100.00;63675.41;4934584;29;20292;-61
2021/09/28 03:31:00;;;;;;;3.45;2.20;;;15.30;99.90;;;-141.85;100.00;63675.41;4934673;29;20237;-61
2021/09/28 03:33:29;;;;;;;3.47;2.03;;;15.30;99.90;;;-141.85;100.00;63675.41;4934452;29;20201;-61
2021/09/28 03:35:58;;;;;;;2.78;1.83;;;15.30;99.90;;;-141.85;100.00;63675.41;4934604;29;20236;-61
2021/09/28 03:38:26;;;;;;;4.70;2.50;;;15.30;99.90;;;-141.85;100.00;63675.41;4934443;29;20211;-62
2021/09/28 03:40:55;;;;;;;4.22;2.35;;;15.30;99.90;;;-141.85;100.00;63675.41;4934098;29;20308;-60
2021/09/28 03:43:23;;;;;;;3.97;2.53;;;15.30;99.90;;;-141.85;100.00;63675.41;4934539;29;20210;-62
2021/09/28 03:45:51;;;;;;;4.07;2.75;;;15.20;99.90;;;-141.85;100.00;63675.41;4934221;29;20237;-62
2021/09/28 03:48:19;;;;;;;4.47;3.15;;;15.20;99.90;;;-141.85;100.00;63675.41;4934297;29;20237;-60
2021/09/28 03:50:47;;;;;;;6.22;3.50;;;15.20;99.90;;;-141.85;100.00;63675.41;4934426;29;20296;-61
2021/09/28 03:53:16;;;;;;;5.50;3.58;;;15.20;99.90;;;-141.85;100.00;63675.41;4934171;29;20344;-61
2021/09/28 03:55:45;;;;;;;4.78;4.18;;;15.30;99.90;;;-141.85;100.00;63675.41;4946273;29;20739;-61
2021/09/28 03:58:15;;;;;;;5.82;3.50;;;15.20;99.90;;;-141.85;100.00;63675.41;4953128;29;20291;-61
2021/09/28 04:00:44;;;;;;;6.88;4.25;;;15.20;99.90;;;-141.85;100.00;63675.41;4953148;29;20328;-60
2021/09/28 04:03:12;;;;;;;4.45;3.90;;;15.20;99.90;;;-141.85;100.00;63675.41;4953249;29;20205;-60
2021/09/28 04:05:41;;;;;;;4.43;3.22;;;15.20;99.90;;;-141.85;100.00;63675.41;4953404;29;20235;-61
2021/09/28 04:08:09;;;;;;;5.97;3.85;;;15.20;99.90;;;-141.85;100.00;63675.41;4953092;29;20575;-62
2021/09/28 04:10:38;;;;;;;8.48;4.60;;;15.30;99.90;;;-141.85;100.00;63675.41;4953086;29;20205;-60
2021/09/28 04:13:10;;;;;;;3.67;3.38;;;15.30;99.90;;;-141.85;100.00;63675.41;4952893;29;20299;-62
2021/09/28 04:15:40;;;;;;;4.80;3.65;;;15.30;99.90;;;-141.85;100.00;63675.41;4953350;29;20196;-60
2021/09/28 04:18:09;;;;;;;6.72;4.07;;;15.20;99.90;;;-141.85;100.00;63675.41;4953154;29;20232;-61
2021/09/28 04:20:41;;;;;;;6.28;4.97;;;15.20;99.90;;;-141.85;100.00;63675.41;4952953;29;20244;-60
2021/09/28 04:23:11;;;;;;;5.10;4.05;;;15.20;99.90;;;-141.85;100.00;63675.41;4953351;29;20196;-60
2021/09/28 04:25:42;;;;;;;5.88;4.80;;;15.20;99.90;;;-141.85;100.00;63675.41;4953288;28;20232;-61
2021/09/28 04:28:12;;;;;;;5.57;4.25;;;15.20;99.90;;;-141.85;100.00;63675.41;4955685;29;20185;-61
2021/09/28 04:30:40;;;;;;;5.78;4.53;;;15.20;99.90;;;-141.85;100.00;63675.41;4956651;29;20295;-62
2021/09/28 04:33:09;;;;;;;7.60;4.28;;;15.20;99.90;;;-141.85;100.00;63675.41;4956377;29;20212;-61
2021/09/28 04:35:37;;;;;;;4.22;3.65;;;15.20;99.90;;;-141.85;100.00;63675.41;4956153;29;20295;-61
2021/09/28 04:38:05;;;;;;;3.53;2.95;;;15.20;99.90;;;-141.85;100.00;63675.41;4956348;29;20292;-61
2021/09/28 04:40:33;;;;;;;3.95;2.83;;;15.20;99.90;;;-141.85;100.00;63675.41;4956379;29;20236;-61
2021/09/28 04:43:03;;;;;;;3.78;2.58;;;15.10;99.90;;;-141.85;100.00;63675.41;4955709;29;20786;-62
2021/09/28 04:45:31;;;;;;;4.50;2.60;;;15.00;99.90;;;-141.85;100.00;63675.41;4956288;29;20189;-61
2021/09/28 04:48:00;;;;;;;5.65;2.63;;;15.00;99.90;;;-141.85;100.00;63675.41;4956344;29;20240;-61
2021/09/28 04:50:28;;;;;;;3.53;2.47;;;15.00;99.90;;;-141.85;100.00;63675.41;4955888;29;20240;-61
2021/09/28 04:52:56;;;;;;;3.28;2.65;;;15.00;99.90;;;-141.85;100.00;63675.41;4956161;29;20229;-60
2021/09/28 04:55:24;;;;;;;5.25;3.28;;;15.00;99.90;;;-141.85;100.00;63675.41;4946320;29;20235;-61
2021/09/28 04:57:52;;;;;;;4.25;3.10;;;14.90;99.90;;;-141.85;100.00;63675.41;4936777;29;20297;-61
2021/09/28 05:00:21;;;;;;;3.45;2.40;;;14.90;99.90;;;-141.85;100.00;63675.41;4936684;29;20320;-60
2021/09/28 05:02:50;;;;;;;3.90;2.60;;;14.90;99.90;;;-141.85;100.00;63675.41;4936515;29;20257;-61
2021/09/28 05:05:18;;;;;;;4.40;2.80;;;14.80;99.90;;;-141.85;100.00;63675.41;4936699;29;20321;-61
2021/09/28 05:07:46;;;;;;;4.13;2.60;;;14.80;99.90;;;-141.85;100.00;63675.41;4936276;29;20692;-61
2021/09/28 05:10:14;;;;;;;4.15;2.63;;;14.70;99.90;;;-141.85;100.00;63675.41;4936307;29;20629;-61
2021/09/28 05:12:42;;;;;;;4.93;2.60;;;14.70;99.90;;;-141.85;100.00;63675.41;4936399;29;20308;-60
2021/09/28 05:15:11;;;;;;;5.90;2.92;;;14.70;99.90;;;-141.85;100.00;63675.41;4936323;29;20248;-61
2021/09/28 05:17:41;;;;;;;4.05;2.83;;;14.60;99.90;;;-141.85;100.00;63675.41;4936357;29;20223;-60
2021/09/28 05:20:10;;;;;;;3.45;3.00;;;14.60;99.90;;;-141.85;100.00;63675.41;4936092;29;20684;-61
2021/09/28 05:22:38;;;;;;;5.22;3.13;;;14.50;99.90;;;-141.85;100.00;63675.41;4936058;29;20903;-61
2021/09/28 05:25:07;;;;;;;6.40;3.25;;;14.50;99.90;;;-141.85;100.00;63675.41;4936243;29;20247;-61
2021/09/28 05:27:35;;;;;;;3.90;3.17;;;14.40;99.90;;;-141.85;100.00;63675.41;4934932;29;20300;-61
2021/09/28 05:30:05;;;;;;;4.68;3.35;;;14.40;99.90;;;-141.85;100.00;63675.41;4936304;29;20296;-61
2021/09/28 05:32:33;;;;;;;6.05;3.40;;;14.40;99.90;;;-141.85;100.00;63675.41;4936217;29;20319;-61
2021/09/28 05:35:03;;;;;;;5.43;3.58;;;14.40;99.90;;;-141.85;100.00;63675.41;4935973;29;20262;-61
2021/09/28 05:37:31;;;;;;;5.35;3.60;;;14.40;99.90;;;-141.85;100.00;63675.41;4935799;29;20217;-60
2021/09/28 05:39:59;;;;;;;5.07;3.50;;;14.40;99.90;;;-141.85;100.00;63675.41;4935973;29;20281;-61
2021/09/28 05:42:27;;;;;;;6.50;3.90;;;14.40;99.90;;;-141.85;100.00;63675.41;4936013;29;20253;-61
2021/09/28 05:44:55;;;;;;;6.95;4.03;;;14.40;99.90;;;-141.85;100.00;63675.41;4936323;29;20216;-64
2021/09/28 05:47:24;;;;;;;5.65;4.10;;;14.50;99.90;;;-141.85;100.00;63675.41;4935654;29;20210;-61
2021/09/28 05:49:52;;;;;;;6.68;3.85;;;14.50;99.90;;;-141.85;100.00;63675.41;4936081;29;20209;-62
2021/09/28 05:52:22;;;;;;;6.45;4.40;;;14.50;99.90;;;-141.85;100.00;63675.41;4935711;29;20296;-61
2021/09/28 05:54:50;;;;;;;7.63;4.40;;;14.50;99.90;;;-141.85;100.00;63675.41;4940396;29;20234;-61
2021/09/28 05:57:21;;;;;;;7.72;4.55;;;14.60;99.90;;;-141.85;100.00;63675.41;4954794;29;20575;-60
2021/09/28 05:59:51;;;;;;;7.50;5.65;;;14.60;99.90;;;-141.85;100.00;63675.41;4954487;29;20747;-64
2021/09/28 06:02:19;;;;;;;6.90;4.88;;;14.70;99.90;;;-141.85;100.00;63675.41;4937705;29;20259;-61
2021/09/28 06:04:47;;;;;;;5.07;4.43;;;14.70;99.90;;;-141.85;100.00;63675.41;4954638;29;20200;-61
2021/09/28 06:07:18;;;;;;;6.15;5.40;;;14.70;99.90;;;-141.85;100.00;63675.41;4954154;29;20209;-62
2021/09/28 06:09:48;;;;;;;6.63;4.75;;;14.80;99.90;;;-141.85;100.00;63675.41;4954650;29;20208;-63
2021/09/28 06:12:17;;;;;;;7.43;5.10;;;14.80;99.90;;;-141.85;100.00;63675.41;4954448;29;20236;-63
2021/09/28 06:14:46;;;;;;;7.07;4.95;;;14.90;99.90;;;-141.85;100.00;63675.41;4943935;29;20342;-64
2021/09/28 06:17:14;;;;;;;8.18;4.93;;;14.80;99.90;;;-141.85;100.00;63675.41;4935227;29;20213;-63
2021/09/28 06:19:42;;;;;;;6.78;5.30;;;14.90;99.90;;;-141.85;100.00;63675.41;4935469;29;20630;-64
2021/09/28 06:22:11;;;;;;;6.35;5.35;;;14.90;99.90;;;-141.85;100.00;63675.41;4935092;29;20232;-64
2021/09/28 06:24:39;;;;;;;9.90;6.15;;;14.90;99.90;;;-141.85;100.00;63675.41;4935250;29;20284;-64
2021/09/28 06:27:10;;;;;;;8.63;6.65;;;14.90;99.90;;;-141.85;100.00;63675.41;4935146;29;20244;-63
2021/09/28 06:29:38;;;;;;;7.85;6.97;;;14.90;99.90;;;-141.85;100.00;63675.41;4935299;29;20200;-64
2021/09/28 06:32:07;;;;;;;8.05;6.03;;;15.00;99.90;;;-141.85;100.00;63675.41;4935066;29;20197;-64
2021/09/28 06:34:35;;;;;;;6.32;5.53;;;15.00;99.90;;;-141.85;100.00;63675.41;4935106;29;20210;-62
2021/09/28 06:37:04;;;;;;;7.13;5.93;;;15.10;99.90;;;-141.85;100.00;63675.41;4934822;29;20241;-64
2021/09/28 06:39:32;;;;;;;7.45;5.93;;;15.00;99.90;;;-141.85;100.00;63675.41;4935101;29;20216;-63
2021/09/28 06:42:00;;;;;;;9.23;6.47;;;15.00;99.90;;;-141.85;100.00;63675.41;4934630;29;20662;-64
2021/09/28 06:44:30;;;;;;;7.85;6.28;;;15.10;99.90;;;-141.85;100.00;63675.41;4935078;29;20296;-65
2021/09/28 06:46:58;;;;;;;7.43;6.72;;;15.00;99.90;;;-141.85;100.00;63675.41;4934222;29;20224;-63
2021/09/28 06:49:26;;;;;;;8.20;6.50;;;15.10;99.90;;;-141.85;100.00;63675.41;4933897;29;20214;-63
2021/09/28 06:51:57;;;;;;;7.43;6.72;;;15.10;99.90;;;-141.85;100.00;63675.41;4934706;29;20287;-65
2021/09/28 06:54:26;;;;;;;7.75;6.75;;;15.10;99.90;;;-141.85;100.00;63675.41;4936730;29;20206;-65
2021/09/28 06:56:54;;;;;;;8.25;7.35;;;15.10;99.90;;;-141.85;100.00;63675.41;4953494;29;20248;-64
2021/09/28 06:59:22;;;;;;;8.15;6.85;;;15.10;99.90;;;-141.85;100.00;63675.41;4953776;29;20683;-64
2021/09/28 07:01:51;;;;;;;6.85;5.88;;;15.20;99.90;;;-141.85;100.00;63675.41;4953558;29;20672;-63
2021/09/28 07:04:20;;;;;;;6.78;5.70;;;15.30;99.90;;;-141.85;100.00;63675.41;4953538;29;20722;-63
2021/09/28 07:06:48;;;;;;;10.15;6.38;;;15.30;99.90;;;-141.85;100.00;63675.41;4953843;29;20208;-63
2021/09/28 07:09:16;;;;;;;7.38;5.20;;;15.40;99.90;;;-141.85;100.00;63675.41;4953739;29;20256;-64
2021/09/28 07:11:44;;;;;;;9.05;4.38;;;15.40;99.90;;;-141.85;100.00;63675.41;4953697;29;20283;-64
2021/09/28 07:14:12;;;;;;;6.05;4.30;;;15.50;99.90;;;-141.85;100.00;63675.41;4953874;29;20225;-64
2021/09/28 07:16:41;;;;;;;5.45;4.10;;;15.50;99.90;;;-141.85;100.00;63675.41;4953914;28;20284;-64
2021/09/28 07:19:11;;;;;;;5.75;3.88;;;15.60;99.90;;;-141.85;100.00;63675.41;4947755;29;20249;-64
2021/09/28 07:21:39;;;;;;;7.03;3.50;;;15.60;99.90;;;-141.85;100.00;63675.41;4953409;29;20299;-65
2021/09/28 07:24:07;;;;;;;4.25;3.63;;;15.60;99.90;;;-141.85;100.00;63675.41;4953359;29;20744;-64
2021/09/28 07:26:35;;;;;;;5.93;4.03;;;15.60;99.90;;;-141.85;100.00;63675.41;4953444;29;20232;-65
2021/09/28 07:29:03;;;;;;;6.60;4.38;;;15.60;99.90;;;-141.85;100.00;63675.41;4953674;29;20235;-64
2021/09/28 07:31:31;;;;;;;6.65;4.38;;;15.50;99.90;;;-141.85;100.00;63675.41;4953649;29;20220;-64
2021/09/28 07:33:59;;;;;;;7.50;4.57;;;15.30;99.90;;;-141.85;100.00;63675.41;4953584;29;20197;-63
2021/09/28 07:36:29;;;;;;;8.32;5.90;;;15.30;99.90;;;-141.85;100.00;63675.41;4953572;29;20211;-66
2021/09/28 07:38:57;;;;;;;6.47;4.80;;;15.20;99.90;;;-141.85;100.00;63675.41;4953226;29;20295;-63
2021/09/28 07:41:25;;;;;;;9.50;5.78;;;15.20;99.90;;;-141.85;100.00;63675.41;4953118;29;20680;-64
2021/09/28 07:43:53;;;;;;;6.93;4.97;;;15.20;99.90;;;-141.85;100.00;63675.41;4953442;29;20327;-65
2021/09/28 07:46:21;;;;;;;6.07;5.10;;;15.10;99.90;;;-141.85;100.00;63675.41;4953406;29;20209;-64
2021/09/28 07:48:49;;;;;;;8.70;4.88;;;15.10;99.90;;;-141.85;100.00;63675.41;4953174;29;20212;-63
2021/09/28 07:51:17;;;;;;;7.57;4.90;;;15.20;99.90;;;-141.85;100.00;63675.41;4953289;29;20304;-64
2021/09/28 07:53:49;;;;;;;6.65;5.13;;;15.30;99.90;;;-141.85;100.00;63675.41;4953275;29;20313;-63
2021/09/28 07:56:17;;;;;;;6.97;4.57;;;15.30;99.90;;;-141.85;100.00;63675.41;4953262;29;20228;-64
2021/09/28 07:58:46;;;;;;;7.38;5.10;;;15.20;99.90;;;-141.85;100.00;63675.41;4953502;29;20228;-64
2021/09/28 08:01:14;;;;;;;7.20;5.10;;;15.20;99.90;;;-141.85;100.00;63675.41;4954390;28;20239;-64
2021/09/28 08:03:42;;;;;;;6.28;5.03;;;15.20;99.90;;;-141.85;100.00;63675.41;4957040;29;20224;-63
2021/09/28 08:06:10;;;;;;;7.30;4.15;;;15.30;99.90;;;-141.85;100.00;63675.41;4957041;29;20297;-63
2021/09/28 08:08:38;;;;;;;5.95;4.28;;;15.30;99.90;;;-141.85;100.00;63675.41;4956516;29;20232;-65
2021/09/28 08:11:08;;;;;;;4.78;4.20;;;15.30;99.90;;;-141.85;100.00;63675.41;4956729;29;20304;-66
2021/09/28 08:13:36;;;;;;;4.80;4.15;;;15.30;99.90;;;-141.85;100.00;63675.41;4956931;29;20292;-63
2021/09/28 08:16:05;;;;;;;4.80;4.25;;;15.40;99.90;;;-141.85;100.00;63675.41;4956830;29;20222;-64
2021/09/28 08:18:33;;;;;;;6.95;5.13;;;15.50;99.90;;;-141.85;100.00;63675.41;4956472;29;20676;-64
2021/09/28 08:21:01;;;;;;;8.60;5.53;;;15.60;99.90;;;-141.85;100.00;63675.41;4956761;29;20227;-63
2021/09/28 08:23:30;;;;;;;6.88;5.03;;;15.80;99.90;;;-141.85;100.00;63675.41;4956467;29;20268;-64
2021/09/28 08:29:08;;;;;;;9.43;6.00;;;15.80;99.90;;;-141.85;100.00;63675.41;4956374;29;20215;-64
2021/09/28 08:31:39;;;;;;;6.53;5.50;;;15.90;99.90;;;-141.85;100.00;63675.41;4956548;29;20185;-64
2021/09/28 08:34:08;;;;;;;7.72;6.05;;;16.10;99.90;;;-141.85;100.00;63675.41;4956439;29;20213;-65
2021/09/28 08:36:37;;;;;;;8.32;7.22;;;16.20;99.90;;;-141.85;100.00;63675.41;4956976;29;20220;-63
2021/09/28 08:39:09;;;;;;;7.40;6.70;;;16.20;99.90;;;-141.85;100.00;63675.41;4956715;29;20205;-64
2021/09/28 08:41:38;;;;;;;9.55;7.78;;;16.20;99.90;;;-141.85;100.00;63675.41;4956127;29;20640;-63
2021/09/28 08:44:08;;;;;;;9.73;7.57;;;16.10;99.90;;;-141.85;100.00;63675.41;4956313;29;20584;-63
2021/09/28 08:46:36;;;;;;;10.38;7.97;;;15.90;99.90;;;-141.85;100.00;63675.41;4943088;29;20206;-63
2021/09/28 08:49:04;;;;;;;11.80;8.35;;;16.00;99.90;;;-141.85;100.00;63675.41;4948621;29;20208;-63
2021/09/28 08:51:33;;;;;;;10.63;9.00;;;15.90;99.90;;;-141.85;100.00;63675.41;4946350;29;20285;-65
2021/09/28 08:54:01;;;;;;;10.93;9.82;;;15.90;99.90;;;-141.85;100.00;63675.41;4937610;29;20233;-63
2021/09/28 08:56:29;;;;;;;14.52;9.55;;;16.10;99.90;;;-141.85;100.00;63675.41;4952894;29;20661;-64
2021/09/28 08:59:00;;;;;;;11.63;9.55;;;16.10;99.90;;;-141.85;100.00;63675.41;4956681;29;20240;-63
2021/09/28 09:01:31;;;;;;;11.95;9.30;;;16.20;99.90;;;-141.85;100.00;63675.41;4956336;29;20233;-63
2021/09/28 09:04:15;;;;;;;13.15;9.88;;;16.40;99.90;;;-141.85;100.00;63675.41;4949157;29;20301;-63
2021/09/28 09:06:44;;;;;;;11.68;9.50;;;16.50;99.90;;;-141.85;100.00;63675.41;4937664;29;20253;-63
2021/09/28 09:09:14;;;;;;;14.65;9.35;;;16.60;99.90;;;-141.85;100.00;63675.41;4937587;29;20212;-66
2021/09/28 09:11:45;;;;;;;13.40;9.75;;;16.60;99.90;;;-141.85;100.00;63675.41;4937366;29;20206;-63
2021/09/28 09:14:17;;;;;;;10.82;9.07;;;16.60;99.90;;;-141.85;100.00;63675.41;4936869;29;20190;-63
2021/09/28 09:16:49;;;;;;;9.90;8.63;;;16.70;99.90;;;-141.85;100.00;63675.41;4937117;29;20280;-63
2021/09/28 09:19:22;;;;;;;10.63;8.00;;;16.90;99.90;;;-141.85;100.00;63675.41;4937131;29;20622;-63
2021/09/28 09:21:53;;;;;;;10.63;8.43;;;17.10;99.90;;;-141.85;100.00;63675.41;4951057;29;20203;-62
2021/09/28 09:24:45;;;;;;;10.38;7.55;;;17.10;99.90;;;-141.85;100.00;63675.41;4956448;29;20215;-63
2021/09/28 09:27:16;;;;;;;8.10;6.55;;;17.00;99.90;;;-141.85;100.00;63675.41;4956425;29;20189;-63
2021/09/28 09:29:46;;;;;;;8.52;7.03;;;17.10;99.90;;;-141.85;100.00;63675.41;4956480;29;20189;-63
2021/09/28 09:32:15;;;;;;;7.88;6.90;;;17.20;99.90;;;-141.85;100.00;63675.41;4956085;29;20232;-63
2021/09/28 09:34:54;;;;;;;10.05;6.60;;;17.30;99.90;;;-141.85;100.00;63675.41;4956094;29;20247;-63
2021/09/28 09:37:22;;;;;;;8.77;6.40;;;17.20;99.90;;;-141.85;100.00;63675.41;4956383;29;20290;-63
2021/09/28 09:39:53;;;;;;;6.68;6.05;;;17.30;99.90;;;-141.85;100.00;63675.41;4956038;29;20256;-63
2021/09/28 09:42:26;;;;;;;6.72;5.53;;;17.30;99.90;;;-141.85;100.00;63675.41;4956203;29;20332;-63
2021/09/28 09:44:54;;;;;;;8.10;6.13;;;17.50;99.90;;;-141.85;100.00;63675.41;4955911;29;20751;-63
2021/09/28 09:47:29;;;;;;;7.80;6.50;;;17.60;99.90;;;-141.85;100.00;63675.41;4956135;29;20236;-63
2021/09/28 09:50:16;;;;;;;7.22;5.97;;;17.50;99.90;;;-141.85;100.00;63675.41;4955551;29;20231;-64
2021/09/28 09:53:10;;;;;;;7.28;6.25;;;17.50;99.90;;;-141.85;100.00;63675.41;4955913;29;20207;-64
2021/09/28 09:55:40;;;;;;;6.85;6.22;;;17.70;99.90;;;-141.85;100.00;63675.41;4944728;29;20221;-62
2021/09/28 09:58:08;;;;;;;9.13;6.30;;;17.70;99.90;;;-141.85;100.00;63675.41;4936512;29;20600;-64
2021/09/28 10:00:40;;;;;;;8.70;6.70;;;17.80;99.90;;;-141.85;100.00;63675.41;4936237;29;20237;-63
2021/09/28 10:03:11;;;;;;;8.50;7.07;;;17.80;99.90;;;-141.85;100.00;63675.41;4936451;29;20535;-63
2021/09/28 10:05:39;;;;;;;7.07;6.38;;;18.00;99.90;;;-141.85;100.00;63675.41;4936176;29;20696;-62
2021/09/28 10:08:13;;;;;;;6.85;6.03;;;18.00;99.90;;;-141.85;100.00;63675.41;4936289;29;20712;-63
2021/09/28 10:10:43;;;;;;;6.68;6.03;;;18.20;99.90;;;-141.85;100.00;63675.41;4936476;29;20220;-63
2021/09/28 10:13:52;;;;;;;6.97;6.13;;;18.30;99.90;;;-141.85;100.00;63675.41;4936111;29;20552;-65